EPSY

Szczytno-Szymany International Airport

Poland
TAF EPSY 171130Z 1712/1721 14005KT 6000 BKN021 BECMG 1715/1718 VRB03KT 3000 BR BKN015 PROB40 TEMPO 1718/1721 1500 BR BKN006
Issued Valid From Valid To
Dec-17 @ 11:30 UTC
(2 hours ago)
Dec-17 @ 12:00 UTC
(an hour ago)
Dec-17 @ 21:00 UTC
(in 8 hours)
Dec-17 @ 12:00 to Dec-17 @ 15:00
TAF EPSY 171130Z 1712/1721 14005KT 6000 BKN021
Wind Visibility Clouds
140° at 5 knots 6,003 meters
  • Broken at 2,100' AGL
Becoming Dec-17 @ 15:00 to Dec-17 @ 21:00
BECMG 1715/1718 VRB03KT 3000 BR BKN015
Wind Visibility Clouds Conditions
Variable at 3 knots 2,993 meters
  • Broken at 1,500' AGL
  • Mist
Temporary  (Probability 40%) Dec-17 @ 18:00 to Dec-17 @ 21:00
PROB40 TEMPO 1718/1721 1500 BR BKN006
Visibility Clouds Conditions
1,497 meters
  • Broken at 600' AGL
  • Mist
TAF EPSY 171130Z 1712/1721 14005KT 6000 BKN021 BECMG 1715/1718 VRB03KT 3000 BR BKN015 PROB40 TEMPO 1718/1721 1500 BR BKN006
Issued Dec-17 @ 11:30 UTC
(2 hours ago)
Valid From Dec-17 @ 12:00 UTC
(an hour ago)
Valid To Dec-17 @ 21:00 UTC
(in 8 hours)
Dec-17 @ 12:00 - Dec-17 @ 15:00
Wind Visibility
140° at 5 knots 6,003 meters
Clouds
  • Broken at 2,100' AGL
Becoming Dec-17 @ 15:00 - Dec-17 @ 21:00
Wind Visibility
Variable at 3 knots 2,993 meters
Clouds
  • Broken at 1,500' AGL
Conditions
  • Mist
Probability 40% Temporary Dec-17 @ 18:00 - Dec-17 @ 21:00
Clouds
  • Broken at 600' AGL
Conditions
  • Mist